sensor_id;sensor_type;location;lat;lon;timestamp;temperature;humidity
17813;DHT22;9030;50.792;8.320;2024-02-26T00:01:47;3.60;99.90
17813;DHT22;9030;50.792;8.320;2024-02-26T00:04:14;3.50;99.90
17813;DHT22;9030;50.792;8.320;2024-02-26T00:06:40;3.70;99.90
17813;DHT22;9030;50.792;8.320;2024-02-26T00:09:07;3.70;99.90
17813;DHT22;9030;50.792;8.320;2024-02-26T00:11:35;3.70;99.90
17813;DHT22;9030;50.792;8.320;2024-02-26T00:14:02;3.70;99.90
17813;DHT22;9030;50.792;8.320;2024-02-26T00:16:29;3.70;99.90
17813;DHT22;9030;50.792;8.320;2024-02-26T00:18:57;3.60;99.90
17813;DHT22;9030;50.792;8.320;2024-02-26T00:21:24;3.60;99.90
17813;DHT22;9030;50.792;8.320;2024-02-26T00:23:51;3.80;99.90
17813;DHT22;9030;50.792;8.320;2024-02-26T00:26:18;3.70;99.90
17813;DHT22;9030;50.792;8.320;2024-02-26T00:28:44;3.70;99.90
17813;DHT22;9030;50.792;8.320;2024-02-26T00:31:11;3.80;99.90
17813;DHT22;9030;50.792;8.320;2024-02-26T00:33:37;3.70;99.90
17813;DHT22;9030;50.792;8.320;2024-02-26T00:36:06;3.70;99.90
17813;DHT22;9030;50.792;8.320;2024-02-26T00:38:32;3.80;99.90
17813;DHT22;9030;50.792;8.320;2024-02-26T00:40:59;3.80;99.90
17813;DHT22;9030;50.792;8.320;2024-02-26T00:43:26;3.80;99.90
17813;DHT22;9030;50.792;8.320;2024-02-26T00:45:52;3.90;99.90
17813;DHT22;9030;50.792;8.320;2024-02-26T00:48:19;3.90;99.90
17813;DHT22;9030;50.792;8.320;2024-02-26T00:50:46;3.90;99.90
17813;DHT22;9030;50.792;8.320;2024-02-26T00:53:14;3.90;99.90
17813;DHT22;9030;50.792;8.320;2024-02-26T00:55:40;3.80;99.90
17813;DHT22;9030;50.792;8.320;2024-02-26T00:58:07;3.70;99.90
17813;DHT22;9030;50.792;8.320;2024-02-26T01:00:34;3.60;99.90
17813;DHT22;9030;50.792;8.320;2024-02-26T01:03:00;3.60;99.90
17813;DHT22;9030;50.792;8.320;2024-02-26T01:05:28;3.60;99.90
17813;DHT22;9030;50.792;8.320;2024-02-26T01:07:55;3.60;99.90
17813;DHT22;9030;50.792;8.320;2024-02-26T01:10:23;3.50;99.90
17813;DHT22;9030;50.792;8.320;2024-02-26T01:12:50;3.50;99.90
17813;DHT22;9030;50.792;8.320;2024-02-26T01:15:16;3.50;99.90
17813;DHT22;9030;50.792;8.320;2024-02-26T01:17:44;3.60;99.90
17813;DHT22;9030;50.792;8.320;2024-02-26T01:20:11;3.70;99.90
17813;DHT22;9030;50.792;8.320;2024-02-26T01:22:37;3.70;99.90
17813;DHT22;9030;50.792;8.320;2024-02-26T01:25:06;3.60;99.90
17813;DHT22;9030;50.792;8.320;2024-02-26T01:27:36;3.70;99.90
17813;DHT22;9030;50.792;8.320;2024-02-26T01:30:03;3.70;99.90
17813;DHT22;9030;50.792;8.320;2024-02-26T01:32:30;3.80;99.90
17813;DHT22;9030;50.792;8.320;2024-02-26T01:34:57;3.80;99.90
17813;DHT22;9030;50.792;8.320;2024-02-26T01:37:24;3.80;99.90
17813;DHT22;9030;50.792;8.320;2024-02-26T01:39:51;3.90;99.90
17813;DHT22;9030;50.792;8.320;2024-02-26T01:42:17;3.90;99.90
17813;DHT22;9030;50.792;8.320;2024-02-26T01:44:45;3.80;99.90
17813;DHT22;9030;50.792;8.320;2024-02-26T01:47:13;3.90;99.90
17813;DHT22;9030;50.792;8.320;2024-02-26T01:49:40;3.90;99.90
17813;DHT22;9030;50.792;8.320;2024-02-26T01:52:08;4.00;99.90
17813;DHT22;9030;50.792;8.320;2024-02-26T01:54:37;4.00;99.90
17813;DHT22;9030;50.792;8.320;2024-02-26T01:57:05;4.00;99.90
17813;DHT22;9030;50.792;8.320;2024-02-26T01:59:33;4.00;99.90
17813;DHT22;9030;50.792;8.320;2024-02-26T02:02:04;4.10;99.90
17813;DHT22;9030;50.792;8.320;2024-02-26T02:04:32;4.10;99.90
17813;DHT22;9030;50.792;8.320;2024-02-26T02:07:00;4.10;99.90
17813;DHT22;9030;50.792;8.320;2024-02-26T02:09:27;4.10;99.90
17813;DHT22;9030;50.792;8.320;2024-02-26T02:11:54;4.10;99.90
17813;DHT22;9030;50.792;8.320;2024-02-26T02:14:21;4.10;99.90
17813;DHT22;9030;50.792;8.320;2024-02-26T02:16:48;4.10;99.90
17813;DHT22;9030;50.792;8.320;2024-02-26T02:19:16;4.00;99.90
17813;DHT22;9030;50.792;8.320;2024-02-26T02:21:44;4.10;99.90
17813;DHT22;9030;50.792;8.320;2024-02-26T02:24:10;4.10;99.90
17813;DHT22;9030;50.792;8.320;2024-02-26T02:26:37;4.10;99.90
17813;DHT22;9030;50.792;8.320;2024-02-26T02:29:04;4.10;99.90
17813;DHT22;9030;50.792;8.320;2024-02-26T02:31:31;4.10;99.90
17813;DHT22;9030;50.792;8.320;2024-02-26T02:33:58;4.00;99.90
17813;DHT22;9030;50.792;8.320;2024-02-26T02:36:25;4.00;99.90
17813;DHT22;9030;50.792;8.320;2024-02-26T02:38:53;4.10;99.90
17813;DHT22;9030;50.792;8.320;2024-02-26T02:41:20;4.00;99.90
17813;DHT22;9030;50.792;8.320;2024-02-26T02:43:47;4.10;99.90
17813;DHT22;9030;50.792;8.320;2024-02-26T02:46:13;4.00;99.90
17813;DHT22;9030;50.792;8.320;2024-02-26T02:48:42;4.00;99.90
17813;DHT22;9030;50.792;8.320;2024-02-26T02:51:09;4.10;99.90
17813;DHT22;9030;50.792;8.320;2024-02-26T02:53:36;4.10;99.90
17813;DHT22;9030;50.792;8.320;2024-02-26T02:56:04;4.10;99.90
17813;DHT22;9030;50.792;8.320;2024-02-26T02:58:31;4.10;99.90
17813;DHT22;9030;50.792;8.320;2024-02-26T03:00:58;4.10;99.90
17813;DHT22;9030;50.792;8.320;2024-02-26T03:03:26;4.00;99.90
17813;DHT22;9030;50.792;8.320;2024-02-26T03:05:54;4.10;99.90
17813;DHT22;9030;50.792;8.320;2024-02-26T03:08:20;4.10;99.90
17813;DHT22;9030;50.792;8.320;2024-02-26T03:10:47;4.10;99.90
17813;DHT22;9030;50.792;8.320;2024-02-26T03:13:15;4.20;99.90
17813;DHT22;9030;50.792;8.320;2024-02-26T03:15:42;4.10;99.90
17813;DHT22;9030;50.792;8.320;2024-02-26T03:18:08;4.20;99.90
17813;DHT22;9030;50.792;8.320;2024-02-26T03:20:35;4.20;99.90
17813;DHT22;9030;50.792;8.320;2024-02-26T03:23:02;4.20;99.90
17813;DHT22;9030;50.792;8.320;2024-02-26T03:25:29;4.20;99.90
17813;DHT22;9030;50.792;8.320;2024-02-26T03:27:55;4.10;99.90
17813;DHT22;9030;50.792;8.320;2024-02-26T03:30:23;4.20;99.90
17813;DHT22;9030;50.792;8.320;2024-02-26T03:32:50;4.20;99.90
17813;DHT22;9030;50.792;8.320;2024-02-26T03:35:16;4.20;99.90
17813;DHT22;9030;50.792;8.320;2024-02-26T03:37:43;4.20;99.90
17813;DHT22;9030;50.792;8.320;2024-02-26T03:40:11;4.20;99.90
17813;DHT22;9030;50.792;8.320;2024-02-26T03:42:39;4.30;99.90
17813;DHT22;9030;50.792;8.320;2024-02-26T03:45:06;4.20;99.90
17813;DHT22;9030;50.792;8.320;2024-02-26T03:47:38;4.20;99.90
17813;DHT22;9030;50.792;8.320;2024-02-26T03:50:06;4.20;99.90
17813;DHT22;9030;50.792;8.320;2024-02-26T03:52:33;4.20;99.90
17813;DHT22;9030;50.792;8.320;2024-02-26T03:55:00;4.20;99.90
17813;DHT22;9030;50.792;8.320;2024-02-26T03:57:27;4.20;99.90
17813;DHT22;9030;50.792;8.320;2024-02-26T03:59:53;4.20;99.90
17813;DHT22;9030;50.792;8.320;2024-02-26T04:02:20;4.20;99.90
17813;DHT22;9030;50.792;8.320;2024-02-26T04:04:50;4.20;99.90
17813;DHT22;9030;50.792;8.320;2024-02-26T04:07:17;4.20;99.90
17813;DHT22;9030;50.792;8.320;2024-02-26T04:09:44;4.20;99.90
17813;DHT22;9030;50.792;8.320;2024-02-26T04:12:11;4.20;99.90
17813;DHT22;9030;50.792;8.320;2024-02-26T04:14:37;4.30;99.90
17813;DHT22;9030;50.792;8.320;2024-02-26T04:17:04;4.30;99.90
17813;DHT22;9030;50.792;8.320;2024-02-26T04:19:31;4.30;99.90
17813;DHT22;9030;50.792;8.320;2024-02-26T04:21:59;4.30;99.90
17813;DHT22;9030;50.792;8.320;2024-02-26T04:24:26;4.30;99.90
17813;DHT22;9030;50.792;8.320;2024-02-26T04:26:52;4.40;99.90
17813;DHT22;9030;50.792;8.320;2024-02-26T04:29:19;4.30;99.90
17813;DHT22;9030;50.792;8.320;2024-02-26T04:31:46;4.40;99.90
17813;DHT22;9030;50.792;8.320;2024-02-26T04:34:13;4.30;99.90
17813;DHT22;9030;50.792;8.320;2024-02-26T04:36:40;4.40;99.90
17813;DHT22;9030;50.792;8.320;2024-02-26T04:39:08;4.30;99.90
17813;DHT22;9030;50.792;8.320;2024-02-26T04:41:35;4.30;99.90
17813;DHT22;9030;50.792;8.320;2024-02-26T04:44:02;4.30;99.90
17813;DHT22;9030;50.792;8.320;2024-02-26T04:46:28;4.30;99.90
17813;DHT22;9030;50.792;8.320;2024-02-26T04:48:55;4.30;99.90
17813;DHT22;9030;50.792;8.320;2024-02-26T04:51:22;4.20;99.90
17813;DHT22;9030;50.792;8.320;2024-02-26T04:53:48;4.30;99.90
17813;DHT22;9030;50.792;8.320;2024-02-26T04:56:16;4.30;99.90
17813;DHT22;9030;50.792;8.320;2024-02-26T04:58:43;4.30;99.90
17813;DHT22;9030;50.792;8.320;2024-02-26T05:01:10;4.30;99.90
17813;DHT22;9030;50.792;8.320;2024-02-26T05:03:36;4.20;99.90
17813;DHT22;9030;50.792;8.320;2024-02-26T05:06:04;4.30;99.90
17813;DHT22;9030;50.792;8.320;2024-02-26T05:08:30;4.30;99.90
17813;DHT22;9030;50.792;8.320;2024-02-26T05:10:59;4.30;99.90
17813;DHT22;9030;50.792;8.320;2024-02-26T05:13:27;4.30;99.90
17813;DHT22;9030;50.792;8.320;2024-02-26T05:15:53;4.40;99.90
17813;DHT22;9030;50.792;8.320;2024-02-26T05:18:20;4.30;99.90
17813;DHT22;9030;50.792;8.320;2024-02-26T05:20:48;4.40;99.90
17813;DHT22;9030;50.792;8.320;2024-02-26T05:23:14;4.30;99.90
17813;DHT22;9030;50.792;8.320;2024-02-26T05:25:41;4.30;99.90
17813;DHT22;9030;50.792;8.320;2024-02-26T05:28:08;4.20;99.90
17813;DHT22;9030;50.792;8.320;2024-02-26T05:30:36;4.20;99.90
17813;DHT22;9030;50.792;8.320;2024-02-26T05:33:05;4.20;99.90
17813;DHT22;9030;50.792;8.320;2024-02-26T05:35:32;4.20;99.90
17813;DHT22;9030;50.792;8.320;2024-02-26T05:37:58;4.10;99.90
17813;DHT22;9030;50.792;8.320;2024-02-26T05:40:25;4.10;99.90
17813;DHT22;9030;50.792;8.320;2024-02-26T05:42:51;4.10;99.90
17813;DHT22;9030;50.792;8.320;2024-02-26T05:45:18;4.20;99.90
17813;DHT22;9030;50.792;8.320;2024-02-26T05:47:46;4.30;99.90
17813;DHT22;9030;50.792;8.320;2024-02-26T05:50:21;4.30;99.90
17813;DHT22;9030;50.792;8.320;2024-02-26T05:52:51;4.30;99.90
17813;DHT22;9030;50.792;8.320;2024-02-26T05:55:18;4.30;99.90
17813;DHT22;9030;50.792;8.320;2024-02-26T05:57:44;4.30;99.90
17813;DHT22;9030;50.792;8.320;2024-02-26T06:00:12;4.30;99.90
17813;DHT22;9030;50.792;8.320;2024-02-26T06:02:39;4.30;99.90
17813;DHT22;9030;50.792;8.320;2024-02-26T06:05:07;4.30;99.90
17813;DHT22;9030;50.792;8.320;2024-02-26T06:07:34;4.20;99.90
17813;DHT22;9030;50.792;8.320;2024-02-26T06:10:01;4.20;99.90
17813;DHT22;9030;50.792;8.320;2024-02-26T06:12:28;4.20;99.90
17813;DHT22;9030;50.792;8.320;2024-02-26T06:14:56;4.10;99.90
17813;DHT22;9030;50.792;8.320;2024-02-26T06:17:22;4.10;99.90
17813;DHT22;9030;50.792;8.320;2024-02-26T06:19:49;4.00;99.90
17813;DHT22;9030;50.792;8.320;2024-02-26T06:22:17;4.10;99.90
17813;DHT22;9030;50.792;8.320;2024-02-26T06:24:44;4.20;99.90
17813;DHT22;9030;50.792;8.320;2024-02-26T06:27:10;4.20;99.90
17813;DHT22;9030;50.792;8.320;2024-02-26T06:29:37;4.20;99.90
17813;DHT22;9030;50.792;8.320;2024-02-26T06:32:05;4.20;99.90
17813;DHT22;9030;50.792;8.320;2024-02-26T06:34:32;4.10;99.90
17813;DHT22;9030;50.792;8.320;2024-02-26T06:36:58;4.10;99.90
17813;DHT22;9030;50.792;8.320;2024-02-26T06:39:26;4.10;99.90
17813;DHT22;9030;50.792;8.320;2024-02-26T06:41:53;4.10;99.90
17813;DHT22;9030;50.792;8.320;2024-02-26T06:44:25;4.20;99.90
17813;DHT22;9030;50.792;8.320;2024-02-26T06:46:57;4.20;99.90
17813;DHT22;9030;50.792;8.320;2024-02-26T06:49:23;4.20;99.90
17813;DHT22;9030;50.792;8.320;2024-02-26T06:51:50;4.10;99.90
17813;DHT22;9030;50.792;8.320;2024-02-26T06:54:17;4.10;99.90
17813;DHT22;9030;50.792;8.320;2024-02-26T06:56:44;4.10;99.90
17813;DHT22;9030;50.792;8.320;2024-02-26T06:59:11;4.10;99.90
17813;DHT22;9030;50.792;8.320;2024-02-26T07:01:40;4.10;99.90
17813;DHT22;9030;50.792;8.320;2024-02-26T07:04:06;4.10;99.90
17813;DHT22;9030;50.792;8.320;2024-02-26T07:06:33;4.00;99.90
17813;DHT22;9030;50.792;8.320;2024-02-26T07:08:59;4.10;99.90
17813;DHT22;9030;50.792;8.320;2024-02-26T07:11:26;4.00;99.90
17813;DHT22;9030;50.792;8.320;2024-02-26T07:13:54;4.10;99.90
17813;DHT22;9030;50.792;8.320;2024-02-26T07:16:21;4.00;99.90
17813;DHT22;9030;50.792;8.320;2024-02-26T07:18:47;4.00;99.90
17813;DHT22;9030;50.792;8.320;2024-02-26T07:21:14;4.00;99.90
17813;DHT22;9030;50.792;8.320;2024-02-26T07:23:41;4.00;99.90
17813;DHT22;9030;50.792;8.320;2024-02-26T07:26:07;4.00;99.90
17813;DHT22;9030;50.792;8.320;2024-02-26T07:28:37;4.00;99.90
17813;DHT22;9030;50.792;8.320;2024-02-26T07:31:05;4.00;99.90
17813;DHT22;9030;50.792;8.320;2024-02-26T07:33:31;4.00;99.90
17813;DHT22;9030;50.792;8.320;2024-02-26T07:35:58;4.00;99.90
17813;DHT22;9030;50.792;8.320;2024-02-26T07:38:25;4.00;99.90
17813;DHT22;9030;50.792;8.320;2024-02-26T07:40:52;4.00;99.90
17813;DHT22;9030;50.792;8.320;2024-02-26T07:43:18;4.00;99.90
17813;DHT22;9030;50.792;8.320;2024-02-26T07:45:45;4.00;99.90
17813;DHT22;9030;50.792;8.320;2024-02-26T07:48:13;4.00;99.90
17813;DHT22;9030;50.792;8.320;2024-02-26T07:50:40;4.00;99.90
17813;DHT22;9030;50.792;8.320;2024-02-26T07:53:06;4.00;99.90
17813;DHT22;9030;50.792;8.320;2024-02-26T07:55:33;4.00;99.90
17813;DHT22;9030;50.792;8.320;2024-02-26T07:58:00;4.00;99.90
17813;DHT22;9030;50.792;8.320;2024-02-26T08:00:26;4.00;99.90
17813;DHT22;9030;50.792;8.320;2024-02-26T08:02:53;4.00;99.90
17813;DHT22;9030;50.792;8.320;2024-02-26T08:05:21;4.00;99.90
17813;DHT22;9030;50.792;8.320;2024-02-26T08:07:48;4.00;99.90
17813;DHT22;9030;50.792;8.320;2024-02-26T08:10:14;4.00;99.90
17813;DHT22;9030;50.792;8.320;2024-02-26T08:12:41;4.00;99.90
17813;DHT22;9030;50.792;8.320;2024-02-26T08:15:08;3.90;99.90
17813;DHT22;9030;50.792;8.320;2024-02-26T08:17:36;4.00;99.90
17813;DHT22;9030;50.792;8.320;2024-02-26T08:20:04;3.90;99.90
17813;DHT22;9030;50.792;8.320;2024-02-26T08:22:32;3.90;99.90
17813;DHT22;9030;50.792;8.320;2024-02-26T08:24:59;3.90;99.90
17813;DHT22;9030;50.792;8.320;2024-02-26T08:27:25;3.90;99.90
17813;DHT22;9030;50.792;8.320;2024-02-26T08:29:52;3.90;99.90
17813;DHT22;9030;50.792;8.320;2024-02-26T08:32:18;3.90;99.90
17813;DHT22;9030;50.792;8.320;2024-02-26T08:34:45;3.90;99.90
17813;DHT22;9030;50.792;8.320;2024-02-26T08:37:12;3.90;99.90
17813;DHT22;9030;50.792;8.320;2024-02-26T08:39:40;3.90;99.90
17813;DHT22;9030;50.792;8.320;2024-02-26T08:42:06;3.90;99.90
17813;DHT22;9030;50.792;8.320;2024-02-26T08:44:33;3.90;99.90
17813;DHT22;9030;50.792;8.320;2024-02-26T08:46:59;4.00;99.90
17813;DHT22;9030;50.792;8.320;2024-02-26T08:49:26;4.00;99.90
17813;DHT22;9030;50.792;8.320;2024-02-26T08:51:53;4.00;99.90
17813;DHT22;9030;50.792;8.320;2024-02-26T08:54:19;4.10;99.90
17813;DHT22;9030;50.792;8.320;2024-02-26T08:56:47;4.10;99.90
17813;DHT22;9030;50.792;8.320;2024-02-26T08:59:14;4.10;99.90
17813;DHT22;9030;50.792;8.320;2024-02-26T09:01:41;4.20;99.90
17813;DHT22;9030;50.792;8.320;2024-02-26T09:04:08;4.20;99.90
17813;DHT22;9030;50.792;8.320;2024-02-26T09:06:35;4.30;99.90
17813;DHT22;9030;50.792;8.320;2024-02-26T09:09:01;4.30;99.90
17813;DHT22;9030;50.792;8.320;2024-02-26T09:11:29;4.40;99.90
17813;DHT22;9030;50.792;8.320;2024-02-26T09:13:57;4.40;99.90
17813;DHT22;9030;50.792;8.320;2024-02-26T09:16:24;4.40;99.90
17813;DHT22;9030;50.792;8.320;2024-02-26T09:18:51;4.40;99.90
17813;DHT22;9030;50.792;8.320;2024-02-26T09:21:17;4.50;99.90
17813;DHT22;9030;50.792;8.320;2024-02-26T09:23:48;4.50;99.90
17813;DHT22;9030;50.792;8.320;2024-02-26T09:26:15;4.50;99.90
17813;DHT22;9030;50.792;8.320;2024-02-26T09:28:42;4.50;99.90
17813;DHT22;9030;50.792;8.320;2024-02-26T09:31:10;4.40;99.90
17813;DHT22;9030;50.792;8.320;2024-02-26T09:33:36;4.40;99.90
17813;DHT22;9030;50.792;8.320;2024-02-26T09:36:04;4.50;99.90
17813;DHT22;9030;50.792;8.320;2024-02-26T09:38:31;4.50;99.90
17813;DHT22;9030;50.792;8.320;2024-02-26T09:41:02;4.50;99.90
17813;DHT22;9030;50.792;8.320;2024-02-26T09:43:34;4.60;99.90
17813;DHT22;9030;50.792;8.320;2024-02-26T09:46:01;4.60;99.90
17813;DHT22;9030;50.792;8.320;2024-02-26T09:48:30;4.60;99.90
17813;DHT22;9030;50.792;8.320;2024-02-26T09:50:57;4.60;99.90
17813;DHT22;9030;50.792;8.320;2024-02-26T09:53:24;4.50;99.90
17813;DHT22;9030;50.792;8.320;2024-02-26T09:55:51;4.60;99.90
17813;DHT22;9030;50.792;8.320;2024-02-26T09:58:18;4.60;99.90
17813;DHT22;9030;50.792;8.320;2024-02-26T10:00:48;4.60;99.90
17813;DHT22;9030;50.792;8.320;2024-02-26T10:03:21;4.60;99.90
17813;DHT22;9030;50.792;8.320;2024-02-26T10:05:50;4.70;99.90
17813;DHT22;9030;50.792;8.320;2024-02-26T10:08:21;4.60;99.90
17813;DHT22;9030;50.792;8.320;2024-02-26T10:10:49;4.70;99.90
17813;DHT22;9030;50.792;8.320;2024-02-26T10:13:16;4.70;99.90
17813;DHT22;9030;50.792;8.320;2024-02-26T10:15:42;4.90;99.90
17813;DHT22;9030;50.792;8.320;2024-02-26T10:18:09;4.90;99.90
17813;DHT22;9030;50.792;8.320;2024-02-26T10:20:36;4.90;99.90
17813;DHT22;9030;50.792;8.320;2024-02-26T10:23:04;5.00;99.90
17813;DHT22;9030;50.792;8.320;2024-02-26T10:25:31;5.00;99.90
17813;DHT22;9030;50.792;8.320;2024-02-26T10:28:00;5.10;99.90
17813;DHT22;9030;50.792;8.320;2024-02-26T10:30:28;5.10;99.90
17813;DHT22;9030;50.792;8.320;2024-02-26T10:32:56;5.10;99.90
17813;DHT22;9030;50.792;8.320;2024-02-26T10:35:23;5.10;99.90
17813;DHT22;9030;50.792;8.320;2024-02-26T10:37:50;5.10;99.90
17813;DHT22;9030;50.792;8.320;2024-02-26T10:40:18;5.00;99.90
17813;DHT22;9030;50.792;8.320;2024-02-26T10:42:45;5.00;99.90
17813;DHT22;9030;50.792;8.320;2024-02-26T10:45:11;5.10;99.90
17813;DHT22;9030;50.792;8.320;2024-02-26T10:47:40;5.20;99.90
17813;DHT22;9030;50.792;8.320;2024-02-26T10:50:07;5.20;99.90
17813;DHT22;9030;50.792;8.320;2024-02-26T10:52:35;5.30;99.90
17813;DHT22;9030;50.792;8.320;2024-02-26T10:55:03;5.30;99.90
17813;DHT22;9030;50.792;8.320;2024-02-26T10:57:34;5.50;99.90
17813;DHT22;9030;50.792;8.320;2024-02-26T11:00:04;5.50;99.90
17813;DHT22;9030;50.792;8.320;2024-02-26T11:02:32;5.50;99.90
17813;DHT22;9030;50.792;8.320;2024-02-26T11:05:01;5.40;99.90
17813;DHT22;9030;50.792;8.320;2024-02-26T11:07:29;5.40;99.90
17813;DHT22;9030;50.792;8.320;2024-02-26T11:09:57;5.30;99.90
17813;DHT22;9030;50.792;8.320;2024-02-26T11:12:27;5.40;99.90
17813;DHT22;9030;50.792;8.320;2024-02-26T11:14:55;5.30;99.90
17813;DHT22;9030;50.792;8.320;2024-02-26T11:17:28;5.30;99.90
17813;DHT22;9030;50.792;8.320;2024-02-26T11:19:57;5.40;99.90
17813;DHT22;9030;50.792;8.320;2024-02-26T11:22:24;5.30;99.90
17813;DHT22;9030;50.792;8.320;2024-02-26T11:24:53;5.30;99.90
17813;DHT22;9030;50.792;8.320;2024-02-26T11:27:24;5.40;99.90
17813;DHT22;9030;50.792;8.320;2024-02-26T11:29:57;5.50;99.90
17813;DHT22;9030;50.792;8.320;2024-02-26T11:32:26;5.60;99.90
17813;DHT22;9030;50.792;8.320;2024-02-26T11:34:54;5.50;99.90
17813;DHT22;9030;50.792;8.320;2024-02-26T11:37:20;5.70;99.90
17813;DHT22;9030;50.792;8.320;2024-02-26T11:39:48;5.70;99.90
17813;DHT22;9030;50.792;8.320;2024-02-26T11:42:17;5.80;99.90
17813;DHT22;9030;50.792;8.320;2024-02-26T11:44:44;5.80;99.90
17813;DHT22;9030;50.792;8.320;2024-02-26T11:47:13;5.70;99.90
17813;DHT22;9030;50.792;8.320;2024-02-26T11:49:40;5.80;99.90
17813;DHT22;9030;50.792;8.320;2024-02-26T11:52:08;5.90;99.90
17813;DHT22;9030;50.792;8.320;2024-02-26T11:54:47;6.00;99.90
17813;DHT22;9030;50.792;8.320;2024-02-26T11:57:27;6.10;99.90
17813;DHT22;9030;50.792;8.320;2024-02-26T11:59:54;5.90;99.90
17813;DHT22;9030;50.792;8.320;2024-02-26T12:02:44;6.00;99.90
17813;DHT22;9030;50.792;8.320;2024-02-26T12:05:12;5.90;99.90
17813;DHT22;9030;50.792;8.320;2024-02-26T12:07:43;5.90;99.90
17813;DHT22;9030;50.792;8.320;2024-02-26T12:10:16;5.90;99.90
17813;DHT22;9030;50.792;8.320;2024-02-26T12:12:43;6.00;99.90
17813;DHT22;9030;50.792;8.320;2024-02-26T12:15:11;5.90;99.90
17813;DHT22;9030;50.792;8.320;2024-02-26T12:17:38;6.00;99.90
17813;DHT22;9030;50.792;8.320;2024-02-26T12:20:10;6.00;99.90
17813;DHT22;9030;50.792;8.320;2024-02-26T12:22:38;5.90;99.90
17813;DHT22;9030;50.792;8.320;2024-02-26T12:25:06;5.90;99.90
17813;DHT22;9030;50.792;8.320;2024-02-26T12:27:35;6.00;99.90
17813;DHT22;9030;50.792;8.320;2024-02-26T12:30:01;6.10;99.90
17813;DHT22;9030;50.792;8.320;2024-02-26T12:32:29;6.20;99.90
17813;DHT22;9030;50.792;8.320;2024-02-26T12:34:56;6.30;99.90
17813;DHT22;9030;50.792;8.320;2024-02-26T12:37:24;6.30;99.90
17813;DHT22;9030;50.792;8.320;2024-02-26T12:39:51;6.40;99.90
17813;DHT22;9030;50.792;8.320;2024-02-26T12:42:18;6.50;99.90
17813;DHT22;9030;50.792;8.320;2024-02-26T12:44:45;6.70;99.90
17813;DHT22;9030;50.792;8.320;2024-02-26T12:47:12;6.80;99.90
17813;DHT22;9030;50.792;8.320;2024-02-26T12:49:42;7.00;99.90
17813;DHT22;9030;50.792;8.320;2024-02-26T12:52:09;6.80;99.90
17813;DHT22;9030;50.792;8.320;2024-02-26T12:54:38;6.80;99.90
17813;DHT22;9030;50.792;8.320;2024-02-26T12:57:06;6.70;99.90
17813;DHT22;9030;50.792;8.320;2024-02-26T12:59:34;6.70;99.90
17813;DHT22;9030;50.792;8.320;2024-02-26T13:02:02;6.80;99.90
17813;DHT22;9030;50.792;8.320;2024-02-26T13:04:29;6.80;99.90
17813;DHT22;9030;50.792;8.320;2024-02-26T13:06:57;6.70;99.90
17813;DHT22;9030;50.792;8.320;2024-02-26T13:09:28;6.80;99.90
17813;DHT22;9030;50.792;8.320;2024-02-26T13:11:56;6.90;99.90
17813;DHT22;9030;50.792;8.320;2024-02-26T13:14:22;6.80;99.90
17813;DHT22;9030;50.792;8.320;2024-02-26T13:16:55;6.80;99.90
17813;DHT22;9030;50.792;8.320;2024-02-26T13:19:22;6.80;99.90
17813;DHT22;9030;50.792;8.320;2024-02-26T13:21:48;7.00;99.90
17813;DHT22;9030;50.792;8.320;2024-02-26T13:24:15;7.10;99.90
17813;DHT22;9030;50.792;8.320;2024-02-26T13:26:43;7.00;99.90
17813;DHT22;9030;50.792;8.320;2024-02-26T13:29:16;7.10;99.90
17813;DHT22;9030;50.792;8.320;2024-02-26T13:31:43;7.10;99.90
17813;DHT22;9030;50.792;8.320;2024-02-26T13:34:10;7.20;99.90
17813;DHT22;9030;50.792;8.320;2024-02-26T13:36:36;7.10;99.90
17813;DHT22;9030;50.792;8.320;2024-02-26T13:39:03;7.10;99.90
17813;DHT22;9030;50.792;8.320;2024-02-26T13:41:30;7.20;99.90
17813;DHT22;9030;50.792;8.320;2024-02-26T13:43:57;7.20;99.90
17813;DHT22;9030;50.792;8.320;2024-02-26T13:46:25;7.20;99.90
17813;DHT22;9030;50.792;8.320;2024-02-26T13:48:52;7.10;99.90
17813;DHT22;9030;50.792;8.320;2024-02-26T13:51:20;7.00;99.90
17813;DHT22;9030;50.792;8.320;2024-02-26T13:53:46;7.00;99.90
17813;DHT22;9030;50.792;8.320;2024-02-26T13:56:13;7.10;99.90
17813;DHT22;9030;50.792;8.320;2024-02-26T13:58:40;7.10;99.90
17813;DHT22;9030;50.792;8.320;2024-02-26T14:01:06;7.00;99.90
17813;DHT22;9030;50.792;8.320;2024-02-26T14:03:35;7.10;99.90
17813;DHT22;9030;50.792;8.320;2024-02-26T14:06:02;7.10;99.90
17813;DHT22;9030;50.792;8.320;2024-02-26T14:08:28;7.10;99.90
17813;DHT22;9030;50.792;8.320;2024-02-26T14:10:55;7.10;99.90
17813;DHT22;9030;50.792;8.320;2024-02-26T14:13:22;7.10;99.90
17813;DHT22;9030;50.792;8.320;2024-02-26T14:15:49;7.10;99.90
17813;DHT22;9030;50.792;8.320;2024-02-26T14:18:15;7.00;99.90
17813;DHT22;9030;50.792;8.320;2024-02-26T14:20:43;7.00;99.90
17813;DHT22;9030;50.792;8.320;2024-02-26T14:23:10;7.00;99.90
17813;DHT22;9030;50.792;8.320;2024-02-26T14:25:37;7.10;99.90
17813;DHT22;9030;50.792;8.320;2024-02-26T14:28:04;7.10;99.90
17813;DHT22;9030;50.792;8.320;2024-02-26T14:30:31;7.20;99.90
17813;DHT22;9030;50.792;8.320;2024-02-26T14:32:58;7.20;99.90
17813;DHT22;9030;50.792;8.320;2024-02-26T14:35:25;7.20;99.90
17813;DHT22;9030;50.792;8.320;2024-02-26T14:37:54;7.20;99.90
17813;DHT22;9030;50.792;8.320;2024-02-26T14:40:25;7.30;99.90
17813;DHT22;9030;50.792;8.320;2024-02-26T14:42:52;7.30;99.90
17813;DHT22;9030;50.792;8.320;2024-02-26T14:45:19;7.30;99.90
17813;DHT22;9030;50.792;8.320;2024-02-26T14:47:45;7.30;99.90
17813;DHT22;9030;50.792;8.320;2024-02-26T14:50:12;7.30;99.90
17813;DHT22;9030;50.792;8.320;2024-02-26T14:52:38;7.30;99.90
17813;DHT22;9030;50.792;8.320;2024-02-26T14:55:07;7.40;99.90
17813;DHT22;9030;50.792;8.320;2024-02-26T14:57:33;7.40;99.90
17813;DHT22;9030;50.792;8.320;2024-02-26T15:00:00;7.40;99.90
17813;DHT22;9030;50.792;8.320;2024-02-26T15:02:30;7.40;99.90
17813;DHT22;9030;50.792;8.320;2024-02-26T15:04:57;7.40;99.90
17813;DHT22;9030;50.792;8.320;2024-02-26T15:07:24;7.40;99.90
17813;DHT22;9030;50.792;8.320;2024-02-26T15:09:50;7.50;99.90
17813;DHT22;9030;50.792;8.320;2024-02-26T15:12:23;7.50;99.90
17813;DHT22;9030;50.792;8.320;2024-02-26T15:14:49;7.50;99.90
17813;DHT22;9030;50.792;8.320;2024-02-26T15:17:16;7.50;99.90
17813;DHT22;9030;50.792;8.320;2024-02-26T15:19:43;7.50;99.90
17813;DHT22;9030;50.792;8.320;2024-02-26T15:22:09;7.50;99.90
17813;DHT22;9030;50.792;8.320;2024-02-26T15:24:37;7.60;99.90
17813;DHT22;9030;50.792;8.320;2024-02-26T15:27:04;7.60;99.90
17813;DHT22;9030;50.792;8.320;2024-02-26T15:29:32;7.50;99.90
17813;DHT22;9030;50.792;8.320;2024-02-26T15:31:58;7.60;99.90
17813;DHT22;9030;50.792;8.320;2024-02-26T15:34:25;7.60;99.90
17813;DHT22;9030;50.792;8.320;2024-02-26T15:36:52;7.60;99.90
17813;DHT22;9030;50.792;8.320;2024-02-26T15:39:18;7.50;99.90
17813;DHT22;9030;50.792;8.320;2024-02-26T15:41:46;7.60;99.90
17813;DHT22;9030;50.792;8.320;2024-02-26T15:44:13;7.60;99.90
17813;DHT22;9030;50.792;8.320;2024-02-26T15:46:41;7.60;99.90
17813;DHT22;9030;50.792;8.320;2024-02-26T15:49:08;7.60;99.90
17813;DHT22;9030;50.792;8.320;2024-02-26T15:51:35;7.60;99.90
17813;DHT22;9030;50.792;8.320;2024-02-26T15:54:01;7.60;99.90
17813;DHT22;9030;50.792;8.320;2024-02-26T15:56:28;7.60;99.90
17813;DHT22;9030;50.792;8.320;2024-02-26T15:58:55;7.60;99.90
17813;DHT22;9030;50.792;8.320;2024-02-26T16:01:21;7.50;99.90
17813;DHT22;9030;50.792;8.320;2024-02-26T16:03:49;7.50;99.90